Главная страница
METAR-TAF:

METAR-TAF

Аэропорты :

Сальвадор, Сальвадор

широта: 13-26N, долгота: 089-03W, высота над уровнем моря: 25 м

Текущие метеонаблюдения

Эта сводка был подготовлена 51 минут назад, в 04:50 UTC
Ветер 2 Узел переменных направлений
Температура 25°C
Влажность 83%
Давление 1010 hPa
Видимость 10 км и более
Нет облачности ниже 1500 м, и нет кучево-дождевой облачности

METAR: MSLP 230450Z VRB02KT CAVOK 25/22 Q1010 A2983 NOSIG

Время: 23:41 (05:41 UTC)

Прогноз

Эта сводка был подготовлена 2 часа и 16 минут назад, в 03:25 UTC
Прогноз действительный с 23-го 06 UTC до 24-го 06 UTC
Ветер 3 Узел переменных направлений
Видимость 10 км и более
небольшая облачность на высоте 6000 фута
С 23-го 1700 UTC
Ветер 10 Узел от южный-юго-западный
Видимость 10 км и более
небольшая облачность на высоте 4300 фута
С 24-го 0100 UTC
Ветер 3 Узел переменных направлений

TAF: MSLP 230325Z 2306/2406 VRB03KT 9999 FEW060 TX32/2318Z TN24/2312Z FM231700 20010KT 9999 FEW043 FM240100 VRB03KT

Метеонаблюдения и прогнозы для более 4000 аэропортов (сводки METAR и TAF).

Имеющиеся станции представлены на карте желтыми и красными точками.

Чтобы увидеть название станции, наведите на нее мышь.

Затем щелкните, чтобы увидеть метеонаблюдения и метеопрогнозы.

Управление картой: чтобы увеличить масштаб, щелкните зеленые кнопки с черным крестиком; чтобы уменьшить масштаб, щелкните зеленую кнопку с тире; для просмотра соседних карт щелкайте зеленые стрелки.


METAR-TAF: